createdAt,value
2018-07-24T00:02:56.867Z,7.34
2018-07-24T00:08:51.875Z,6.79
2018-07-24T00:14:46.917Z,7.23
2018-07-24T00:20:41.918Z,6.64
2018-07-24T00:26:36.996Z,9.85
2018-07-24T00:32:31.896Z,7.39
2018-07-24T00:38:26.899Z,8.67
2018-07-24T00:44:21.915Z,8.93
2018-07-24T00:50:16.951Z,8.13
2018-07-24T00:56:11.977Z,7.02
2018-07-24T01:02:06.910Z,9.55
2018-07-24T01:08:01.910Z,9.14
2018-07-24T01:13:56.954Z,7.59
2018-07-24T01:19:51.937Z,8.24
2018-07-24T01:25:46.976Z,8.23
2018-07-24T01:31:41.939Z,7.9
2018-07-24T01:37:36.925Z,8.04
2018-07-24T01:43:31.954Z,8.09
2018-07-24T01:49:26.946Z,9.31
2018-07-24T01:55:21.940Z,8.22
2018-07-24T02:01:17.020Z,9.67
2018-07-24T02:07:12.017Z,8.58
2018-07-24T02:13:06.999Z,11.03
2018-07-24T02:19:01.977Z,9.38
2018-07-24T02:24:56.992Z,8.76
2018-07-24T02:30:52.015Z,7.57
2018-07-24T02:36:47.079Z,10.04
2018-07-24T02:42:42.032Z,10.63
2018-07-24T02:48:36.999Z,7.88
2018-07-24T02:54:32.034Z,10.37
2018-07-24T03:00:27.007Z,10.18
2018-07-24T03:06:22.103Z,7.73
2018-07-24T03:12:17.053Z,8.92
2018-07-24T03:18:12.017Z,8
2018-07-24T03:24:07.017Z,8.85
2018-07-24T03:30:02.099Z,8
2018-07-24T03:35:57.051Z,6.95
2018-07-24T03:41:52.011Z,7.75
2018-07-24T03:47:47.074Z,9.87
2018-07-24T03:53:42.083Z,9.7
2018-07-24T03:59:37.058Z,7.83
2018-07-24T04:05:32.101Z,7.55
2018-07-24T04:11:27.130Z,8.62
2018-07-24T04:17:22.058Z,9.97
2018-07-24T04:23:17.090Z,8.67
2018-07-24T04:29:12.118Z,7.58
2018-07-24T04:35:07.093Z,9.43
2018-07-24T04:41:02.150Z,8.71
2018-07-24T04:46:57.088Z,9.5
2018-07-24T04:52:52.160Z,8.65
2018-07-24T04:58:47.159Z,7.96
2018-07-24T05:04:42.105Z,7.65
2018-07-24T05:10:37.142Z,9.73
2018-07-24T05:16:32.100Z,7.57
2018-07-24T05:22:27.115Z,8.03
2018-07-24T05:28:22.121Z,10.41
2018-07-24T05:34:17.159Z,11.07
2018-07-24T05:40:12.142Z,23.27
2018-07-24T05:46:07.154Z,51
2018-07-24T05:52:02.163Z,27.09
2018-07-24T05:57:57.134Z,15.23
2018-07-24T06:03:52.113Z,12.99
2018-07-24T06:09:47.137Z,13.42
2018-07-24T06:15:42.247Z,17.36
2018-07-24T06:21:37.167Z,14.01
2018-07-24T06:27:32.198Z,15.22
2018-07-24T06:33:27.141Z,12.35
2018-07-24T06:39:22.264Z,14.57
2018-07-24T06:45:17.311Z,13.67
2018-07-24T06:51:12.205Z,10.47
2018-07-24T06:57:07.201Z,14.24
2018-07-24T07:03:02.226Z,12.5
2018-07-24T07:08:57.296Z,10.31
2018-07-24T07:14:52.161Z,10.66
2018-07-24T07:20:47.189Z,10.91
2018-07-24T07:26:42.209Z,9.68
2018-07-24T07:32:37.272Z,14
2018-07-24T07:38:32.246Z,10.94
2018-07-24T07:44:27.242Z,10.71
2018-07-24T07:50:22.219Z,9.86
2018-07-24T07:56:17.256Z,15.11
2018-07-24T08:02:12.279Z,16.07
2018-07-24T08:08:07.252Z,14.93
2018-07-24T08:14:02.298Z,14.53
2018-07-24T08:19:57.285Z,11.47
2018-07-24T08:25:52.237Z,11.83
2018-07-24T08:31:47.293Z,11.14
2018-07-24T08:37:42.250Z,12.86
2018-07-24T08:43:37.261Z,10.63
2018-07-24T08:49:32.300Z,10.01
2018-07-24T08:55:27.578Z,9.73
2018-07-24T09:01:22.290Z,9.49
2018-07-24T09:07:17.337Z,12.8
2018-07-24T09:13:12.291Z,8.24
2018-07-24T09:19:07.321Z,18.27
2018-07-24T09:25:02.283Z,8
2018-07-24T09:30:57.351Z,8.56
2018-07-24T09:36:52.316Z,7.94
2018-07-24T09:42:47.326Z,7.08
2018-07-24T09:48:42.369Z,16.15
2018-07-24T09:54:37.327Z,6.99
2018-07-24T10:00:32.354Z,7.33
2018-07-24T10:06:27.328Z,18.57
2018-07-24T10:12:22.350Z,7.16
2018-07-24T10:18:17.334Z,7.49
2018-07-24T10:24:12.363Z,6.28
2018-07-24T10:30:07.412Z,6.57
2018-07-24T10:36:02.467Z,5.07
2018-07-24T10:41:57.399Z,6.41
2018-07-24T10:47:52.400Z,5.5
2018-07-24T10:53:47.416Z,4.95
2018-07-24T10:59:42.359Z,9.2
2018-07-24T11:05:37.400Z,5.1
2018-07-24T11:11:32.376Z,5.12
2018-07-24T11:17:27.485Z,5.65
2018-07-24T11:23:22.472Z,5.41
2018-07-24T11:29:17.417Z,4.69
2018-07-24T11:35:12.431Z,4.67
2018-07-24T11:41:07.531Z,5.21
2018-07-24T11:47:02.424Z,4.3
2018-07-24T11:52:57.428Z,4.62
2018-07-24T11:58:52.488Z,5.09
2018-07-24T12:04:47.504Z,4.39
2018-07-24T12:10:49.830Z,4.48
2018-07-24T12:16:37.441Z,4.73
2018-07-24T12:22:32.478Z,4.17
2018-07-24T12:28:27.470Z,4.07
2018-07-24T12:34:22.500Z,4.41
2018-07-24T12:40:17.482Z,5.05
2018-07-24T12:46:12.554Z,4.94
2018-07-24T12:52:07.493Z,4.37
2018-07-24T12:58:02.677Z,4.72
2018-07-24T13:03:57.487Z,4.73
2018-07-24T13:09:52.673Z,5.54
2018-07-24T13:15:47.540Z,4.3
2018-07-24T13:21:42.535Z,4.02
2018-07-24T13:27:37.586Z,4.63
2018-07-24T13:33:32.542Z,4.47
2018-07-24T13:39:27.600Z,4.4
2018-07-24T13:45:22.529Z,4.32
2018-07-24T13:51:17.546Z,4.09
2018-07-24T13:57:12.592Z,3.92
2018-07-24T14:03:07.557Z,4.15
2018-07-24T14:09:02.626Z,3.48
2018-07-24T14:14:57.556Z,3.19
2018-07-24T14:20:52.571Z,3.33
2018-07-24T14:26:47.588Z,2.9
2018-07-24T14:32:42.616Z,3.53
2018-07-24T14:38:37.663Z,2.49
2018-07-24T14:44:32.632Z,2.74
2018-07-24T14:50:27.583Z,3.15
2018-07-24T14:56:22.595Z,2.88
2018-07-24T15:02:17.656Z,3.37
2018-07-24T15:08:12.592Z,2.75
2018-07-24T15:14:07.630Z,2.91
2018-07-24T15:20:02.645Z,3.04
2018-07-24T15:25:57.622Z,2.53
2018-07-24T15:31:52.669Z,2.53
2018-07-24T15:37:47.660Z,2.5
2018-07-24T15:43:42.642Z,2.54
2018-07-24T15:49:37.635Z,1.99
2018-07-24T15:55:32.719Z,1.82
2018-07-24T16:01:27.704Z,2.67
2018-07-24T16:07:22.679Z,2.38
2018-07-24T16:13:17.677Z,4.75
2018-07-24T16:19:12.677Z,2.19
2018-07-24T16:25:07.703Z,2.99
2018-07-24T16:31:02.690Z,2.07
2018-07-24T16:36:57.719Z,2.68
2018-07-24T16:42:52.715Z,2.37
2018-07-24T16:48:47.702Z,2.72
2018-07-24T16:54:42.713Z,2.38
2018-07-24T17:00:37.717Z,3.95
2018-07-24T17:06:32.737Z,6.45
2018-07-24T17:12:27.752Z,4.12
2018-07-24T17:18:22.734Z,3.02
2018-07-24T17:24:17.778Z,3.66
2018-07-24T17:30:12.722Z,3.44
2018-07-24T17:36:07.818Z,3.71
2018-07-24T17:42:02.787Z,3.94
2018-07-24T17:47:57.774Z,4.07
2018-07-24T17:53:52.824Z,4.07
2018-07-24T17:59:47.797Z,4.1
2018-07-24T18:05:42.770Z,5.06
2018-07-24T18:11:37.795Z,3.59
2018-07-24T18:17:32.844Z,5.65
2018-07-24T18:23:27.820Z,4.63
2018-07-24T18:29:22.809Z,3.7
2018-07-24T18:35:17.778Z,6.8
2018-07-24T18:41:12.806Z,3.56
2018-07-24T18:47:07.815Z,4.97
2018-07-24T18:53:02.869Z,4.26
2018-07-24T18:58:57.901Z,5.28
2018-07-24T19:04:52.923Z,5.32
2018-07-24T19:10:47.838Z,4.12
2018-07-24T19:16:42.863Z,3.49
2018-07-24T19:22:37.895Z,5.07
2018-07-24T19:28:32.922Z,7.36
2018-07-24T19:34:27.919Z,5.41
2018-07-24T19:40:22.901Z,4.8
2018-07-24T19:46:17.878Z,7.02
2018-07-24T19:52:12.901Z,3.66
2018-07-24T19:58:07.961Z,4.09
2018-07-24T20:04:02.961Z,4.11
2018-07-24T20:09:57.867Z,3.88
2018-07-24T20:15:52.908Z,4.37
2018-07-24T20:21:47.936Z,5.7
2018-07-24T20:27:42.888Z,4.53
2018-07-24T20:33:37.929Z,5.03
2018-07-24T20:39:32.911Z,4.09
2018-07-24T20:45:27.908Z,3.86
2018-07-24T20:51:22.985Z,3.98
2018-07-24T20:57:18.058Z,3.98
2018-07-24T21:03:13.117Z,5.06
2018-07-24T21:09:07.950Z,4.52
2018-07-24T21:15:02.915Z,3.99
2018-07-24T21:20:57.962Z,6.25
2018-07-24T21:26:52.949Z,3.38
2018-07-24T21:32:47.994Z,3.74
2018-07-24T21:38:42.939Z,3.85
2018-07-24T21:44:37.972Z,4.26
2018-07-24T21:50:32.988Z,4.36
2018-07-24T21:56:28.008Z,3.44
2018-07-24T22:02:23.151Z,3.46
2018-07-24T22:08:18.012Z,4
2018-07-24T22:14:12.978Z,4.47
2018-07-24T22:20:08.154Z,3.48
2018-07-24T22:26:02.997Z,4.26
2018-07-24T22:31:57.978Z,3.87
2018-07-24T22:37:53.057Z,4.17
2018-07-24T22:43:48.049Z,4.32
2018-07-24T22:49:43.022Z,4.1
2018-07-24T22:55:38.042Z,3.71
2018-07-24T23:01:33.025Z,4.7
2018-07-24T23:07:28.071Z,5.6
2018-07-24T23:13:23.064Z,4.03
2018-07-24T23:19:18.100Z,4.26
2018-07-24T23:25:13.042Z,4.16
2018-07-24T23:31:08.086Z,5
2018-07-24T23:37:03.042Z,4.48
2018-07-24T23:42:58.076Z,4
2018-07-24T23:48:53.082Z,4.75
2018-07-24T23:54:48.079Z,4.83
